sensor_id;sensor_type;location;lat;lon;timestamp;temperature;humidity
6724;DHT22;3399;52.530;13.304;2023-04-26T00:01:31;4.50;99.90
6724;DHT22;3399;52.530;13.304;2023-04-26T00:03:56;4.50;99.90
6724;DHT22;3399;52.530;13.304;2023-04-26T00:06:22;4.50;99.90
6724;DHT22;3399;52.530;13.304;2023-04-26T00:08:47;4.40;99.90
6724;DHT22;3399;52.530;13.304;2023-04-26T00:11:13;4.50;99.90
6724;DHT22;3399;52.530;13.304;2023-04-26T00:13:38;4.40;99.90
6724;DHT22;3399;52.530;13.304;2023-04-26T00:16:04;4.40;99.90
6724;DHT22;3399;52.530;13.304;2023-04-26T00:18:30;4.30;99.90
6724;DHT22;3399;52.530;13.304;2023-04-26T00:20:56;4.30;99.90
6724;DHT22;3399;52.530;13.304;2023-04-26T00:23:21;4.30;99.90
6724;DHT22;3399;52.530;13.304;2023-04-26T00:25:47;4.20;99.90
6724;DHT22;3399;52.530;13.304;2023-04-26T00:28:13;4.20;99.90
6724;DHT22;3399;52.530;13.304;2023-04-26T00:30:38;4.20;99.90
6724;DHT22;3399;52.530;13.304;2023-04-26T00:33:06;4.10;99.90
6724;DHT22;3399;52.530;13.304;2023-04-26T00:35:32;4.00;99.90
6724;DHT22;3399;52.530;13.304;2023-04-26T00:37:57;4.00;99.90
6724;DHT22;3399;52.530;13.304;2023-04-26T00:40:23;4.00;99.90
6724;DHT22;3399;52.530;13.304;2023-04-26T00:42:56;3.90;99.90
6724;DHT22;3399;52.530;13.304;2023-04-26T00:45:22;4.00;99.90
6724;DHT22;3399;52.530;13.304;2023-04-26T00:47:47;4.10;99.90
6724;DHT22;3399;52.530;13.304;2023-04-26T00:50:13;4.30;99.90
6724;DHT22;3399;52.530;13.304;2023-04-26T00:52:39;4.30;99.90
6724;DHT22;3399;52.530;13.304;2023-04-26T00:55:05;4.30;99.90
6724;DHT22;3399;52.530;13.304;2023-04-26T00:57:31;4.30;99.90
6724;DHT22;3399;52.530;13.304;2023-04-26T00:59:57;4.40;99.90
6724;DHT22;3399;52.530;13.304;2023-04-26T01:02:22;4.70;99.90
6724;DHT22;3399;52.530;13.304;2023-04-26T01:04:48;4.70;99.90
6724;DHT22;3399;52.530;13.304;2023-04-26T01:07:13;4.50;99.90
6724;DHT22;3399;52.530;13.304;2023-04-26T01:09:39;4.40;99.90
6724;DHT22;3399;52.530;13.304;2023-04-26T01:12:06;4.20;99.90
6724;DHT22;3399;52.530;13.304;2023-04-26T01:14:33;4.10;99.90
6724;DHT22;3399;52.530;13.304;2023-04-26T01:17:02;4.00;99.90
6724;DHT22;3399;52.530;13.304;2023-04-26T01:19:27;3.90;99.90
6724;DHT22;3399;52.530;13.304;2023-04-26T01:21:53;3.80;99.90
6724;DHT22;3399;52.530;13.304;2023-04-26T01:24:19;3.80;99.90
6724;DHT22;3399;52.530;13.304;2023-04-26T01:26:45;3.80;99.90
6724;DHT22;3399;52.530;13.304;2023-04-26T01:29:13;3.70;99.90
6724;DHT22;3399;52.530;13.304;2023-04-26T01:31:38;3.70;99.90
6724;DHT22;3399;52.530;13.304;2023-04-26T01:34:04;3.70;99.90
6724;DHT22;3399;52.530;13.304;2023-04-26T01:36:30;3.60;99.90
6724;DHT22;3399;52.530;13.304;2023-04-26T01:38:56;3.60;99.90
6724;DHT22;3399;52.530;13.304;2023-04-26T01:41:22;3.50;99.90
6724;DHT22;3399;52.530;13.304;2023-04-26T01:43:48;3.60;99.90
6724;DHT22;3399;52.530;13.304;2023-04-26T01:46:14;3.60;99.90
6724;DHT22;3399;52.530;13.304;2023-04-26T01:48:40;3.60;99.90
6724;DHT22;3399;52.530;13.304;2023-04-26T01:51:05;3.60;99.90
6724;DHT22;3399;52.530;13.304;2023-04-26T01:53:32;3.50;99.90
6724;DHT22;3399;52.530;13.304;2023-04-26T01:56:00;3.50;99.90
6724;DHT22;3399;52.530;13.304;2023-04-26T01:58:30;3.40;99.90
6724;DHT22;3399;52.530;13.304;2023-04-26T02:01:03;3.50;99.90
6724;DHT22;3399;52.530;13.304;2023-04-26T02:03:28;3.40;99.90
6724;DHT22;3399;52.530;13.304;2023-04-26T02:05:54;3.30;99.90
6724;DHT22;3399;52.530;13.304;2023-04-26T02:08:19;3.40;99.90
6724;DHT22;3399;52.530;13.304;2023-04-26T02:10:45;3.30;99.90
6724;DHT22;3399;52.530;13.304;2023-04-26T02:13:11;3.30;99.90
6724;DHT22;3399;52.530;13.304;2023-04-26T02:15:36;3.30;99.90
6724;DHT22;3399;52.530;13.304;2023-04-26T02:18:02;3.30;99.90
6724;DHT22;3399;52.530;13.304;2023-04-26T02:20:27;3.30;99.90
6724;DHT22;3399;52.530;13.304;2023-04-26T02:22:53;3.30;99.90
6724;DHT22;3399;52.530;13.304;2023-04-26T02:25:18;3.30;99.90
6724;DHT22;3399;52.530;13.304;2023-04-26T02:27:44;3.30;99.90
6724;DHT22;3399;52.530;13.304;2023-04-26T02:30:10;3.30;99.90
6724;DHT22;3399;52.530;13.304;2023-04-26T02:32:35;3.20;99.90
6724;DHT22;3399;52.530;13.304;2023-04-26T02:35:01;3.20;99.90
6724;DHT22;3399;52.530;13.304;2023-04-26T02:37:27;3.20;99.90
6724;DHT22;3399;52.530;13.304;2023-04-26T02:39:52;3.20;99.90
6724;DHT22;3399;52.530;13.304;2023-04-26T02:42:18;3.10;99.90
6724;DHT22;3399;52.530;13.304;2023-04-26T02:44:43;3.10;99.90
6724;DHT22;3399;52.530;13.304;2023-04-26T02:47:09;3.10;99.90
6724;DHT22;3399;52.530;13.304;2023-04-26T02:49:35;3.10;99.90
6724;DHT22;3399;52.530;13.304;2023-04-26T02:52:00;3.00;99.90
6724;DHT22;3399;52.530;13.304;2023-04-26T02:54:26;3.10;99.90
6724;DHT22;3399;52.530;13.304;2023-04-26T02:56:51;3.00;99.90
6724;DHT22;3399;52.530;13.304;2023-04-26T02:59:17;3.10;99.90
6724;DHT22;3399;52.530;13.304;2023-04-26T03:01:42;3.10;99.90
6724;DHT22;3399;52.530;13.304;2023-04-26T03:04:08;3.10;99.90
6724;DHT22;3399;52.530;13.304;2023-04-26T03:06:34;3.00;99.90
6724;DHT22;3399;52.530;13.304;2023-04-26T03:09:00;2.90;99.90
6724;DHT22;3399;52.530;13.304;2023-04-26T03:11:25;2.90;99.90
6724;DHT22;3399;52.530;13.304;2023-04-26T03:13:50;2.90;99.90
6724;DHT22;3399;52.530;13.304;2023-04-26T03:16:18;2.90;99.90
6724;DHT22;3399;52.530;13.304;2023-04-26T03:18:45;2.90;99.90
6724;DHT22;3399;52.530;13.304;2023-04-26T03:21:11;2.80;99.90
6724;DHT22;3399;52.530;13.304;2023-04-26T03:23:37;2.80;99.90
6724;DHT22;3399;52.530;13.304;2023-04-26T03:26:02;2.90;99.90
6724;DHT22;3399;52.530;13.304;2023-04-26T03:28:28;2.80;99.90
6724;DHT22;3399;52.530;13.304;2023-04-26T03:30:53;2.80;99.90
6724;DHT22;3399;52.530;13.304;2023-04-26T03:33:19;2.80;99.90
6724;DHT22;3399;52.530;13.304;2023-04-26T03:35:44;2.80;99.90
6724;DHT22;3399;52.530;13.304;2023-04-26T03:38:10;2.70;99.90
6724;DHT22;3399;52.530;13.304;2023-04-26T03:40:35;2.70;99.90
6724;DHT22;3399;52.530;13.304;2023-04-26T03:43:01;2.70;99.90
6724;DHT22;3399;52.530;13.304;2023-04-26T03:45:27;2.70;99.90
6724;DHT22;3399;52.530;13.304;2023-04-26T03:47:52;2.70;99.90
6724;DHT22;3399;52.530;13.304;2023-04-26T03:50:18;2.70;99.90
6724;DHT22;3399;52.530;13.304;2023-04-26T03:52:44;2.60;99.90
6724;DHT22;3399;52.530;13.304;2023-04-26T03:55:09;2.60;99.90
6724;DHT22;3399;52.530;13.304;2023-04-26T03:57:36;2.60;99.90
6724;DHT22;3399;52.530;13.304;2023-04-26T04:00:02;2.60;99.90
6724;DHT22;3399;52.530;13.304;2023-04-26T04:02:33;2.70;99.90
6724;DHT22;3399;52.530;13.304;2023-04-26T04:04:58;2.70;99.90
6724;DHT22;3399;52.530;13.304;2023-04-26T04:07:24;2.70;99.90
6724;DHT22;3399;52.530;13.304;2023-04-26T04:09:49;2.80;99.90
6724;DHT22;3399;52.530;13.304;2023-04-26T04:12:15;2.70;99.90
6724;DHT22;3399;52.530;13.304;2023-04-26T04:14:41;2.70;99.90
6724;DHT22;3399;52.530;13.304;2023-04-26T04:17:06;2.70;99.90
6724;DHT22;3399;52.530;13.304;2023-04-26T04:19:32;2.70;99.90
6724;DHT22;3399;52.530;13.304;2023-04-26T04:21:58;2.80;99.90
6724;DHT22;3399;52.530;13.304;2023-04-26T04:24:23;2.80;99.90
6724;DHT22;3399;52.530;13.304;2023-04-26T04:26:49;2.80;99.90
6724;DHT22;3399;52.530;13.304;2023-04-26T04:29:15;2.80;99.90
6724;DHT22;3399;52.530;13.304;2023-04-26T04:31:40;2.80;99.90
6724;DHT22;3399;52.530;13.304;2023-04-26T04:34:06;2.90;99.90
6724;DHT22;3399;52.530;13.304;2023-04-26T04:36:33;2.90;99.90
6724;DHT22;3399;52.530;13.304;2023-04-26T04:38:58;2.90;99.90
6724;DHT22;3399;52.530;13.304;2023-04-26T04:41:24;3.00;99.90
6724;DHT22;3399;52.530;13.304;2023-04-26T04:43:49;3.00;99.90
6724;DHT22;3399;52.530;13.304;2023-04-26T04:46:15;3.00;99.90
6724;DHT22;3399;52.530;13.304;2023-04-26T04:48:41;3.10;99.90
6724;DHT22;3399;52.530;13.304;2023-04-26T04:51:06;3.10;99.90
6724;DHT22;3399;52.530;13.304;2023-04-26T04:53:32;3.10;99.90
6724;DHT22;3399;52.530;13.304;2023-04-26T04:55:58;3.20;99.90
6724;DHT22;3399;52.530;13.304;2023-04-26T04:58:23;3.20;99.90
6724;DHT22;3399;52.530;13.304;2023-04-26T05:00:50;3.30;99.90
6724;DHT22;3399;52.530;13.304;2023-04-26T05:03:15;3.30;99.90
6724;DHT22;3399;52.530;13.304;2023-04-26T05:05:41;3.30;99.90
6724;DHT22;3399;52.530;13.304;2023-04-26T05:08:06;3.40;99.90
6724;DHT22;3399;52.530;13.304;2023-04-26T05:10:33;3.40;99.90
6724;DHT22;3399;52.530;13.304;2023-04-26T05:12:59;3.40;99.90
6724;DHT22;3399;52.530;13.304;2023-04-26T05:15:25;3.50;99.90
6724;DHT22;3399;52.530;13.304;2023-04-26T05:17:50;3.60;99.90
6724;DHT22;3399;52.530;13.304;2023-04-26T05:20:16;3.60;99.90
6724;DHT22;3399;52.530;13.304;2023-04-26T05:22:41;3.70;99.90
6724;DHT22;3399;52.530;13.304;2023-04-26T05:25:07;3.80;99.90
6724;DHT22;3399;52.530;13.304;2023-04-26T05:27:33;3.80;99.90
6724;DHT22;3399;52.530;13.304;2023-04-26T05:30:03;3.90;99.90
6724;DHT22;3399;52.530;13.304;2023-04-26T05:32:29;3.90;99.90
6724;DHT22;3399;52.530;13.304;2023-04-26T05:34:54;4.00;99.90
6724;DHT22;3399;52.530;13.304;2023-04-26T05:37:20;4.10;99.90
6724;DHT22;3399;52.530;13.304;2023-04-26T05:39:45;4.20;99.90
6724;DHT22;3399;52.530;13.304;2023-04-26T05:42:11;4.20;99.90
6724;DHT22;3399;52.530;13.304;2023-04-26T05:44:36;4.30;99.90
6724;DHT22;3399;52.530;13.304;2023-04-26T05:47:02;4.30;99.90
6724;DHT22;3399;52.530;13.304;2023-04-26T05:49:27;4.40;99.90
6724;DHT22;3399;52.530;13.304;2023-04-26T05:51:53;4.40;99.90
6724;DHT22;3399;52.530;13.304;2023-04-26T05:54:18;4.50;99.90
6724;DHT22;3399;52.530;13.304;2023-04-26T05:56:44;4.60;99.90
6724;DHT22;3399;52.530;13.304;2023-04-26T05:59:10;4.60;99.90
6724;DHT22;3399;52.530;13.304;2023-04-26T06:01:36;4.60;99.90
6724;DHT22;3399;52.530;13.304;2023-04-26T06:04:01;4.60;99.90
6724;DHT22;3399;52.530;13.304;2023-04-26T06:06:27;4.80;99.90
6724;DHT22;3399;52.530;13.304;2023-04-26T06:08:53;4.90;99.90
6724;DHT22;3399;52.530;13.304;2023-04-26T06:11:18;4.90;99.90
6724;DHT22;3399;52.530;13.304;2023-04-26T06:13:44;5.00;99.90
6724;DHT22;3399;52.530;13.304;2023-04-26T06:16:09;5.10;99.90
6724;DHT22;3399;52.530;13.304;2023-04-26T06:18:35;5.10;99.90
6724;DHT22;3399;52.530;13.304;2023-04-26T06:21:01;5.10;99.90
6724;DHT22;3399;52.530;13.304;2023-04-26T06:23:26;5.30;99.90
6724;DHT22;3399;52.530;13.304;2023-04-26T06:25:52;5.40;99.90
6724;DHT22;3399;52.530;13.304;2023-04-26T06:28:17;5.30;99.90
6724;DHT22;3399;52.530;13.304;2023-04-26T06:30:43;5.50;99.90
6724;DHT22;3399;52.530;13.304;2023-04-26T06:33:08;5.60;99.90
6724;DHT22;3399;52.530;13.304;2023-04-26T06:35:41;5.70;99.90
6724;DHT22;3399;52.530;13.304;2023-04-26T06:38:07;5.80;99.90
6724;DHT22;3399;52.530;13.304;2023-04-26T06:40:34;6.00;99.90
6724;DHT22;3399;52.530;13.304;2023-04-26T06:43:01;6.20;99.90
6724;DHT22;3399;52.530;13.304;2023-04-26T06:45:27;6.10;99.90
6724;DHT22;3399;52.530;13.304;2023-04-26T06:47:53;6.10;99.90
6724;DHT22;3399;52.530;13.304;2023-04-26T06:50:19;6.30;99.90
6724;DHT22;3399;52.530;13.304;2023-04-26T06:52:44;6.40;99.90
6724;DHT22;3399;52.530;13.304;2023-04-26T06:55:10;6.40;99.90
6724;DHT22;3399;52.530;13.304;2023-04-26T06:57:35;6.30;99.90
6724;DHT22;3399;52.530;13.304;2023-04-26T07:00:02;6.30;99.90
6724;DHT22;3399;52.530;13.304;2023-04-26T07:02:28;6.40;99.90
6724;DHT22;3399;52.530;13.304;2023-04-26T07:04:54;6.30;99.90
6724;DHT22;3399;52.530;13.304;2023-04-26T07:07:20;6.30;99.90
6724;DHT22;3399;52.530;13.304;2023-04-26T07:09:45;6.30;99.90
6724;DHT22;3399;52.530;13.304;2023-04-26T07:12:11;6.50;99.90
6724;DHT22;3399;52.530;13.304;2023-04-26T07:14:37;6.50;99.90
6724;DHT22;3399;52.530;13.304;2023-04-26T07:17:07;6.60;99.90
6724;DHT22;3399;52.530;13.304;2023-04-26T07:19:33;6.80;99.90
6724;DHT22;3399;52.530;13.304;2023-04-26T07:21:58;7.00;99.90
6724;DHT22;3399;52.530;13.304;2023-04-26T07:24:24;6.90;99.90
6724;DHT22;3399;52.530;13.304;2023-04-26T07:26:50;6.90;99.90
6724;DHT22;3399;52.530;13.304;2023-04-26T07:29:15;7.00;99.90
6724;DHT22;3399;52.530;13.304;2023-04-26T07:31:43;7.20;99.90
6724;DHT22;3399;52.530;13.304;2023-04-26T07:34:08;7.20;99.90
6724;DHT22;3399;52.530;13.304;2023-04-26T07:36:34;7.10;99.90
6724;DHT22;3399;52.530;13.304;2023-04-26T07:38:59;7.10;99.90
6724;DHT22;3399;52.530;13.304;2023-04-26T07:41:25;7.20;99.90
6724;DHT22;3399;52.530;13.304;2023-04-26T07:43:50;7.50;99.90
6724;DHT22;3399;52.530;13.304;2023-04-26T07:46:16;7.70;99.90
6724;DHT22;3399;52.530;13.304;2023-04-26T07:48:42;7.90;99.90
6724;DHT22;3399;52.530;13.304;2023-04-26T07:51:10;8.00;99.90
6724;DHT22;3399;52.530;13.304;2023-04-26T07:53:37;8.10;99.90
6724;DHT22;3399;52.530;13.304;2023-04-26T07:56:06;8.00;99.90
6724;DHT22;3399;52.530;13.304;2023-04-26T07:58:33;8.10;99.90
6724;DHT22;3399;52.530;13.304;2023-04-26T08:00:59;8.20;99.90
6724;DHT22;3399;52.530;13.304;2023-04-26T08:03:25;8.20;99.90
6724;DHT22;3399;52.530;13.304;2023-04-26T08:05:52;8.00;99.90
6724;DHT22;3399;52.530;13.304;2023-04-26T08:08:18;7.90;99.90
6724;DHT22;3399;52.530;13.304;2023-04-26T08:10:44;7.90;99.90
6724;DHT22;3399;52.530;13.304;2023-04-26T08:13:09;7.80;99.90
6724;DHT22;3399;52.530;13.304;2023-04-26T08:15:35;7.90;99.90
6724;DHT22;3399;52.530;13.304;2023-04-26T08:18:00;7.90;99.90
6724;DHT22;3399;52.530;13.304;2023-04-26T08:20:26;8.00;99.90
6724;DHT22;3399;52.530;13.304;2023-04-26T08:22:58;8.10;99.90
6724;DHT22;3399;52.530;13.304;2023-04-26T08:25:24;8.10;99.90
6724;DHT22;3399;52.530;13.304;2023-04-26T08:27:50;7.90;99.90
6724;DHT22;3399;52.530;13.304;2023-04-26T08:30:16;8.00;99.90
6724;DHT22;3399;52.530;13.304;2023-04-26T08:32:41;7.80;99.90
6724;DHT22;3399;52.530;13.304;2023-04-26T08:35:07;7.60;99.90
6724;DHT22;3399;52.530;13.304;2023-04-26T08:37:34;7.60;99.90
6724;DHT22;3399;52.530;13.304;2023-04-26T08:40:00;7.80;99.90
6724;DHT22;3399;52.530;13.304;2023-04-26T08:42:26;7.90;99.90
6724;DHT22;3399;52.530;13.304;2023-04-26T08:44:52;8.10;99.90
6724;DHT22;3399;52.530;13.304;2023-04-26T08:47:28;8.40;99.90
6724;DHT22;3399;52.530;13.304;2023-04-26T08:49:57;8.50;99.90
6724;DHT22;3399;52.530;13.304;2023-04-26T08:52:29;8.90;99.90
6724;DHT22;3399;52.530;13.304;2023-04-26T08:54:56;9.20;99.90
6724;DHT22;3399;52.530;13.304;2023-04-26T08:57:23;9.20;99.50
6724;DHT22;3399;52.530;13.304;2023-04-26T08:59:49;9.10;99.90
6724;DHT22;3399;52.530;13.304;2023-04-26T09:02:22;8.90;99.90
6724;DHT22;3399;52.530;13.304;2023-04-26T09:04:48;8.90;99.90
6724;DHT22;3399;52.530;13.304;2023-04-26T09:07:20;8.80;99.90
6724;DHT22;3399;52.530;13.304;2023-04-26T09:09:48;8.80;99.80
6724;DHT22;3399;52.530;13.304;2023-04-26T09:12:18;8.90;99.40
6724;DHT22;3399;52.530;13.304;2023-04-26T09:14:46;8.90;99.50
6724;DHT22;3399;52.530;13.304;2023-04-26T09:17:27;9.20;99.30
6724;DHT22;3399;52.530;13.304;2023-04-26T09:19:53;9.20;98.30
6724;DHT22;3399;52.530;13.304;2023-04-26T09:22:30;9.20;98.20
6724;DHT22;3399;52.530;13.304;2023-04-26T09:24:56;9.30;98.70
6724;DHT22;3399;52.530;13.304;2023-04-26T09:27:23;9.30;97.80
6724;DHT22;3399;52.530;13.304;2023-04-26T09:32:54;9.50;97.60
6724;DHT22;3399;52.530;13.304;2023-04-26T09:40:37;9.70;97.00
6724;DHT22;3399;52.530;13.304;2023-04-26T09:45:41;9.60;95.40
6724;DHT22;3399;52.530;13.304;2023-04-26T09:50:48;10.00;94.10
6724;DHT22;3399;52.530;13.304;2023-04-26T09:53:40;10.00;93.70
6724;DHT22;3399;52.530;13.304;2023-04-26T09:56:16;9.80;94.30
6724;DHT22;3399;52.530;13.304;2023-04-26T10:01:16;9.80;93.00
6724;DHT22;3399;52.530;13.304;2023-04-26T10:03:45;9.60;93.00
6724;DHT22;3399;52.530;13.304;2023-04-26T10:06:14;9.60;93.00
6724;DHT22;3399;52.530;13.304;2023-04-26T10:08:40;9.70;93.70
6724;DHT22;3399;52.530;13.304;2023-04-26T10:11:06;9.80;92.30
6724;DHT22;3399;52.530;13.304;2023-04-26T10:13:39;9.60;90.80
6724;DHT22;3399;52.530;13.304;2023-04-26T10:16:06;9.50;90.40
6724;DHT22;3399;52.530;13.304;2023-04-26T10:18:35;9.30;91.40
6724;DHT22;3399;52.530;13.304;2023-04-26T10:21:18;9.30;91.50
6724;DHT22;3399;52.530;13.304;2023-04-26T10:23:44;9.20;91.60
6724;DHT22;3399;52.530;13.304;2023-04-26T10:29:18;8.90;92.20
6724;DHT22;3399;52.530;13.304;2023-04-26T10:34:32;8.40;96.20
6724;DHT22;3399;52.530;13.304;2023-04-26T10:37:14;8.50;96.30
6724;DHT22;3399;52.530;13.304;2023-04-26T10:39:45;8.70;96.00
6724;DHT22;3399;52.530;13.304;2023-04-26T10:44:47;9.20;95.50
6724;DHT22;3399;52.530;13.304;2023-04-26T10:47:21;9.40;94.40
6724;DHT22;3399;52.530;13.304;2023-04-26T10:49:47;9.50;94.00
6724;DHT22;3399;52.530;13.304;2023-04-26T10:52:19;9.70;94.00
6724;DHT22;3399;52.530;13.304;2023-04-26T10:54:55;9.70;93.50
6724;DHT22;3399;52.530;13.304;2023-04-26T11:03:02;9.50;93.40
6724;DHT22;3399;52.530;13.304;2023-04-26T11:05:50;9.50;93.60
6724;DHT22;3399;52.530;13.304;2023-04-26T11:08:23;9.60;93.00
6724;DHT22;3399;52.530;13.304;2023-04-26T11:11:10;9.60;93.20
6724;DHT22;3399;52.530;13.304;2023-04-26T11:13:37;9.60;91.90
6724;DHT22;3399;52.530;13.304;2023-04-26T11:16:05;9.70;92.50
6724;DHT22;3399;52.530;13.304;2023-04-26T11:18:32;9.80;91.60
6724;DHT22;3399;52.530;13.304;2023-04-26T11:20:58;9.90;91.00
6724;DHT22;3399;52.530;13.304;2023-04-26T11:23:26;10.10;90.20
6724;DHT22;3399;52.530;13.304;2023-04-26T11:25:51;10.40;90.40
6724;DHT22;3399;52.530;13.304;2023-04-26T11:28:19;10.50;90.70
6724;DHT22;3399;52.530;13.304;2023-04-26T11:30:48;10.40;90.60
6724;DHT22;3399;52.530;13.304;2023-04-26T11:33:21;10.20;90.20
6724;DHT22;3399;52.530;13.304;2023-04-26T11:35:48;10.00;90.10
6724;DHT22;3399;52.530;13.304;2023-04-26T11:38:14;10.00;90.60
6724;DHT22;3399;52.530;13.304;2023-04-26T11:40:40;10.00;89.80
6724;DHT22;3399;52.530;13.304;2023-04-26T11:43:07;9.90;91.20
6724;DHT22;3399;52.530;13.304;2023-04-26T11:45:34;10.00;90.50
6724;DHT22;3399;52.530;13.304;2023-04-26T11:48:04;9.80;90.70
6724;DHT22;3399;52.530;13.304;2023-04-26T11:50:31;9.70;90.90
6724;DHT22;3399;52.530;13.304;2023-04-26T11:53:00;9.70;90.50
6724;DHT22;3399;52.530;13.304;2023-04-26T11:55:28;9.70;90.80
6724;DHT22;3399;52.530;13.304;2023-04-26T11:57:55;10.10;90.20
6724;DHT22;3399;52.530;13.304;2023-04-26T12:00:21;10.40;90.00
6724;DHT22;3399;52.530;13.304;2023-04-26T12:02:47;10.60;87.30
6724;DHT22;3399;52.530;13.304;2023-04-26T12:05:27;11.00;84.70
6724;DHT22;3399;52.530;13.304;2023-04-26T12:07:58;11.50;81.50
6724;DHT22;3399;52.530;13.304;2023-04-26T12:10:30;12.10;80.70
6724;DHT22;3399;52.530;13.304;2023-04-26T12:12:58;12.00;79.20
6724;DHT22;3399;52.530;13.304;2023-04-26T12:15:28;11.70;80.40
6724;DHT22;3399;52.530;13.304;2023-04-26T12:18:08;11.30;82.40
6724;DHT22;3399;52.530;13.304;2023-04-26T12:20:36;10.50;83.50
6724;DHT22;3399;52.530;13.304;2023-04-26T12:25:33;9.80;90.00
6724;DHT22;3399;52.530;13.304;2023-04-26T12:27:59;9.60;90.30
6724;DHT22;3399;52.530;13.304;2023-04-26T12:30:27;9.60;91.50
6724;DHT22;3399;52.530;13.304;2023-04-26T12:32:53;9.70;91.40
6724;DHT22;3399;52.530;13.304;2023-04-26T12:35:19;9.70;91.80
6724;DHT22;3399;52.530;13.304;2023-04-26T12:37:45;9.70;91.40
6724;DHT22;3399;52.530;13.304;2023-04-26T12:40:12;9.80;91.30
6724;DHT22;3399;52.530;13.304;2023-04-26T12:42:38;10.00;90.90
6724;DHT22;3399;52.530;13.304;2023-04-26T12:45:04;10.20;90.80
6724;DHT22;3399;52.530;13.304;2023-04-26T12:47:30;10.80;89.40
6724;DHT22;3399;52.530;13.304;2023-04-26T12:49:56;11.30;88.00
6724;DHT22;3399;52.530;13.304;2023-04-26T12:52:23;12.10;87.80
6724;DHT22;3399;52.530;13.304;2023-04-26T12:54:48;13.30;84.10
6724;DHT22;3399;52.530;13.304;2023-04-26T12:57:14;14.40;78.20
6724;DHT22;3399;52.530;13.304;2023-04-26T12:59:39;15.30;71.10
6724;DHT22;3399;52.530;13.304;2023-04-26T13:02:06;15.60;65.80
6724;DHT22;3399;52.530;13.304;2023-04-26T13:04:32;14.80;63.10
6724;DHT22;3399;52.530;13.304;2023-04-26T13:06:58;14.20;65.40
6724;DHT22;3399;52.530;13.304;2023-04-26T13:09:23;13.60;63.50
6724;DHT22;3399;52.530;13.304;2023-04-26T13:11:50;13.10;65.30
6724;DHT22;3399;52.530;13.304;2023-04-26T13:14:15;13.30;64.40
6724;DHT22;3399;52.530;13.304;2023-04-26T13:16:41;13.30;64.00
6724;DHT22;3399;52.530;13.304;2023-04-26T13:19:08;13.10;64.70
6724;DHT22;3399;52.530;13.304;2023-04-26T13:21:34;12.70;65.60
6724;DHT22;3399;52.530;13.304;2023-04-26T13:24:00;12.20;65.80
6724;DHT22;3399;52.530;13.304;2023-04-26T13:26:25;11.80;66.50
6724;DHT22;3399;52.530;13.304;2023-04-26T13:28:51;11.50;65.60
6724;DHT22;3399;52.530;13.304;2023-04-26T13:31:16;11.10;65.90
6724;DHT22;3399;52.530;13.304;2023-04-26T13:33:43;10.90;68.00
6724;DHT22;3399;52.530;13.304;2023-04-26T13:36:08;10.80;67.70
6724;DHT22;3399;52.530;13.304;2023-04-26T13:38:34;10.70;67.10
6724;DHT22;3399;52.530;13.304;2023-04-26T13:41:00;10.60;68.80
6724;DHT22;3399;52.530;13.304;2023-04-26T13:43:26;10.50;71.50
6724;DHT22;3399;52.530;13.304;2023-04-26T13:45:52;10.40;77.80
6724;DHT22;3399;52.530;13.304;2023-04-26T13:48:17;10.40;81.60
6724;DHT22;3399;52.530;13.304;2023-04-26T13:50:43;10.60;79.00
6724;DHT22;3399;52.530;13.304;2023-04-26T13:53:08;11.00;77.30
6724;DHT22;3399;52.530;13.304;2023-04-26T13:55:34;11.70;74.30
6724;DHT22;3399;52.530;13.304;2023-04-26T13:57:59;11.90;71.70
6724;DHT22;3399;52.530;13.304;2023-04-26T14:00:25;11.70;70.40
6724;DHT22;3399;52.530;13.304;2023-04-26T14:02:51;11.50;69.40
6724;DHT22;3399;52.530;13.304;2023-04-26T14:05:17;11.20;68.80
6724;DHT22;3399;52.530;13.304;2023-04-26T14:07:43;11.00;70.10
6724;DHT22;3399;52.530;13.304;2023-04-26T14:10:10;10.80;72.50
6724;DHT22;3399;52.530;13.304;2023-04-26T14:12:36;10.70;75.10
6724;DHT22;3399;52.530;13.304;2023-04-26T14:15:02;11.20;74.10
6724;DHT22;3399;52.530;13.304;2023-04-26T14:17:31;12.60;72.50
6724;DHT22;3399;52.530;13.304;2023-04-26T14:19:57;14.30;69.30
6724;DHT22;3399;52.530;13.304;2023-04-26T14:22:23;15.50;62.90
6724;DHT22;3399;52.530;13.304;2023-04-26T14:24:48;16.10;60.20
6724;DHT22;3399;52.530;13.304;2023-04-26T14:27:14;15.80;58.80
6724;DHT22;3399;52.530;13.304;2023-04-26T14:29:39;15.00;59.00
6724;DHT22;3399;52.530;13.304;2023-04-26T14:32:05;14.50;60.00
6724;DHT22;3399;52.530;13.304;2023-04-26T14:34:32;14.30;61.30
6724;DHT22;3399;52.530;13.304;2023-04-26T14:36:57;14.20;60.60
6724;DHT22;3399;52.530;13.304;2023-04-26T14:39:26;13.60;60.70
6724;DHT22;3399;52.530;13.304;2023-04-26T14:41:51;12.90;62.30
6724;DHT22;3399;52.530;13.304;2023-04-26T14:44:17;12.50;64.10
6724;DHT22;3399;52.530;13.304;2023-04-26T14:46:42;12.30;65.00
6724;DHT22;3399;52.530;13.304;2023-04-26T14:49:08;11.80;65.30
6724;DHT22;3399;52.530;13.304;2023-04-26T14:51:33;11.60;67.00
6724;DHT22;3399;52.530;13.304;2023-04-26T14:53:59;11.70;66.60
6724;DHT22;3399;52.530;13.304;2023-04-26T14:56:24;11.50;65.80
6724;DHT22;3399;52.530;13.304;2023-04-26T14:58:50;11.60;66.10
6724;DHT22;3399;52.530;13.304;2023-04-26T15:01:15;12.20;64.90
6724;DHT22;3399;52.530;13.304;2023-04-26T15:03:41;13.30;63.30
6724;DHT22;3399;52.530;13.304;2023-04-26T15:06:09;14.40;60.40
6724;DHT22;3399;52.530;13.304;2023-04-26T15:08:35;14.30;58.80
6724;DHT22;3399;52.530;13.304;2023-04-26T15:11:02;14.80;58.70
6724;DHT22;3399;52.530;13.304;2023-04-26T15:13:28;15.80;56.90
6724;DHT22;3399;52.530;13.304;2023-04-26T15:15:53;16.60;54.70
6724;DHT22;3399;52.530;13.304;2023-04-26T15:18:19;17.10;52.90
6724;DHT22;3399;52.530;13.304;2023-04-26T15:20:45;16.50;51.70
6724;DHT22;3399;52.530;13.304;2023-04-26T15:23:10;15.70;52.30
6724;DHT22;3399;52.530;13.304;2023-04-26T15:25:36;14.80;54.20
6724;DHT22;3399;52.530;13.304;2023-04-26T15:28:02;14.70;54.30
6724;DHT22;3399;52.530;13.304;2023-04-26T15:30:28;14.30;56.20
6724;DHT22;3399;52.530;13.304;2023-04-26T15:32:55;14.20;56.60
6724;DHT22;3399;52.530;13.304;2023-04-26T15:35:20;13.80;55.50
6724;DHT22;3399;52.530;13.304;2023-04-26T15:37:46;13.10;56.50
6724;DHT22;3399;52.530;13.304;2023-04-26T15:40:12;12.40;58.00
6724;DHT22;3399;52.530;13.304;2023-04-26T15:42:38;12.10;59.30
6724;DHT22;3399;52.530;13.304;2023-04-26T15:45:04;11.80;60.20
6724;DHT22;3399;52.530;13.304;2023-04-26T15:47:29;11.70;59.70
6724;DHT22;3399;52.530;13.304;2023-04-26T15:50:00;11.50;60.50
6724;DHT22;3399;52.530;13.304;2023-04-26T15:52:26;11.30;60.50
6724;DHT22;3399;52.530;13.304;2023-04-26T15:54:51;11.20;61.40
6724;DHT22;3399;52.530;13.304;2023-04-26T15:57:17;11.10;62.30
6724;DHT22;3399;52.530;13.304;2023-04-26T15:59:42;10.90;60.80
6724;DHT22;3399;52.530;13.304;2023-04-26T16:02:08;10.80;61.70
6724;DHT22;3399;52.530;13.304;2023-04-26T16:04:33;10.70;61.80
6724;DHT22;3399;52.530;13.304;2023-04-26T16:06:59;10.60;63.40
6724;DHT22;3399;52.530;13.304;2023-04-26T16:09:24;10.60;64.80
6724;DHT22;3399;52.530;13.304;2023-04-26T16:11:50;10.50;64.50
6724;DHT22;3399;52.530;13.304;2023-04-26T16:14:16;10.40;64.90
6724;DHT22;3399;52.530;13.304;2023-04-26T16:16:41;10.40;65.80
6724;DHT22;3399;52.530;13.304;2023-04-26T16:19:08;10.30;65.80
6724;DHT22;3399;52.530;13.304;2023-04-26T16:21:34;10.20;66.90
6724;DHT22;3399;52.530;13.304;2023-04-26T16:24:00;10.20;67.70
6724;DHT22;3399;52.530;13.304;2023-04-26T16:26:25;10.20;67.90